Time;durP1;ratioP1;P1;durP2;ratioP2;P2;SDS_P1;SDS_P2;PMS_P1;PMS_P2;Temp;Humidity;BMP_temperature;BMP_pressure;BME280_temperature;BME280_humidity;BME280_pressure;Samples;Min_cycle;Max_cycle;Signal;HPM_P1;HPM_P2
2021/11/26 00:00:09;;;;;;;81.75;37.35;;;3.30;99.90;;;;;;4995108;28;20081;-72
2021/11/26 00:02:35;;;;;;;92.03;39.58;;;3.20;99.90;;;;;;4995635;28;20022;-72
2021/11/26 00:05:03;;;;;;;92.57;43.03;;;3.20;99.90;;;;;;4994963;28;20030;-72
2021/11/26 00:07:29;;;;;;;84.95;40.08;;;3.30;99.90;;;;;;4995476;28;20026;-72
2021/11/26 00:09:55;;;;;;;76.38;39.45;;;3.30;99.90;;;;;;4994977;28;20026;-72
2021/11/26 00:12:20;;;;;;;82.75;38.33;;;3.30;99.90;;;;;;4977893;28;20048;-73
2021/11/26 00:15:16;;;;;;;75.22;35.47;;;3.20;99.90;;;;;;4977441;28;20022;-72
2021/11/26 00:17:34;;;;;;;81.95;37.08;;;3.30;99.90;;;;;;4995099;28;20507;-72
2021/11/26 00:20:00;;;;;;;84.80;41.60;;;3.30;99.90;;;;;;4994761;28;20023;-72
2021/11/26 00:22:26;;;;;;;85.80;38.13;;;3.20;99.90;;;;;;4995305;28;20025;-73
2021/11/26 00:24:53;;;;;;;80.53;38.15;;;3.30;99.90;;;;;;4994595;28;20026;-72
2021/11/26 00:27:19;;;;;;;80.90;38.05;;;3.20;99.90;;;;;;4995140;28;20101;-72
2021/11/26 00:29:45;;;;;;;76.97;38.47;;;3.20;99.90;;;;;;4977009;28;20085;-72
2021/11/26 00:32:10;;;;;;;90.82;43.08;;;3.20;99.90;;;;;;4995052;28;20030;-72
2021/11/26 00:34:36;;;;;;;85.00;38.40;;;3.30;99.90;;;;;;4994646;28;20041;-72
2021/11/26 00:37:02;;;;;;;84.18;38.92;;;3.30;99.90;;;;;;4994877;28;20030;-73
2021/11/26 00:39:28;;;;;;;82.80;39.10;;;3.30;99.90;;;;;;4994352;28;20456;-72
2021/11/26 00:41:54;;;;;;;87.72;38.45;;;3.30;99.90;;;;;;4994781;28;20023;-72
2021/11/26 00:44:20;;;;;;;88.50;40.40;;;3.30;99.90;;;;;;4994404;28;20023;-72
2021/11/26 00:46:45;;;;;;;78.75;38.78;;;3.30;99.90;;;;;;4977303;28;20502;-72
2021/11/26 00:49:11;;;;;;;84.88;40.20;;;3.20;99.90;;;;;;4994705;28;20026;-72
2021/11/26 00:51:37;;;;;;;81.32;38.17;;;3.30;99.90;;;;;;4993815;28;20088;-73
2021/11/26 00:54:03;;;;;;;80.15;38.45;;;3.30;99.90;;;;;;4994284;28;20361;-72
2021/11/26 00:56:29;;;;;;;88.22;40.17;;;3.30;99.90;;;;;;4994222;28;20105;-73
2021/11/26 00:58:54;;;;;;;80.40;36.85;;;3.30;99.90;;;;;;4994455;28;20476;-73
2021/11/26 01:01:20;;;;;;;80.63;37.10;;;3.30;99.90;;;;;;4994057;28;20026;-72
2021/11/26 01:03:45;;;;;;;79.22;37.00;;;3.30;99.90;;;;;;4994517;28;20041;-72
2021/11/26 01:06:11;;;;;;;86.72;40.20;;;3.30;99.90;;;;;;4993852;28;20040;-72
2021/11/26 01:08:39;;;;;;;92.57;40.65;;;3.30;99.90;;;;;;4976863;28;20113;-73
2021/11/26 01:11:05;;;;;;;88.65;39.45;;;3.30;99.90;;;;;;4976279;28;20088;-72
2021/11/26 01:13:31;;;;;;;79.07;39.47;;;3.30;99.90;;;;;;4976826;28;20034;-74
2021/11/26 01:15:57;;;;;;;98.00;46.92;;;3.30;99.90;;;;;;4976249;28;20081;-72
2021/11/26 01:18:23;;;;;;;91.20;44.35;;;3.30;99.90;;;;;;4976696;28;20015;-72
2021/11/26 01:20:48;;;;;;;96.68;43.28;;;3.30;99.90;;;;;;4976128;28;20022;-72
2021/11/26 01:23:15;;;;;;;83.45;44.75;;;3.40;99.90;;;;;;4994125;28;20539;-73
2021/11/26 01:25:41;;;;;;;89.85;44.03;;;3.30;99.90;;;;;;4993483;28;20053;-72
2021/11/26 01:28:07;;;;;;;78.55;38.08;;;3.30;99.90;;;;;;4976145;28;20026;-72
2021/11/26 01:30:41;;;;;;;68.18;32.15;;;3.30;99.90;;;;;;4975983;28;20023;-72
2021/11/26 01:33:09;;;;;;;80.65;39.17;;;3.30;99.90;;;;;;4976465;28;20030;-72
2021/11/26 01:35:36;;;;;;;98.68;51.08;;;3.30;99.90;;;;;;4975974;28;20073;-72
2021/11/26 01:38:06;;;;;;;103.22;51.25;;;3.30;99.90;;;;;;4993860;28;20042;-72
2021/11/26 01:40:33;;;;;;;75.80;37.28;;;3.30;99.90;;;;;;4993404;28;20026;-72
2021/11/26 01:43:00;;;;;;;82.88;37.35;;;3.30;99.90;;;;;;4991013;28;20562;-73
2021/11/26 01:45:25;;;;;;;70.05;35.20;;;3.30;99.90;;;;;;4988898;28;20047;-72
2021/11/26 01:47:52;;;;;;;77.80;36.92;;;3.30;99.90;;;;;;4989564;28;20500;-73
2021/11/26 01:50:22;;;;;;;78.32;35.55;;;3.30;99.90;;;;;;4978954;28;20025;-72
2021/11/26 01:52:48;;;;;;;74.00;33.70;;;3.30;99.90;;;;;;4989542;28;20387;-72
2021/11/26 01:55:14;;;;;;;74.78;31.73;;;3.20;99.90;;;;;;4989122;28;20027;-72
2021/11/26 01:57:44;;;;;;;67.45;33.65;;;3.20;99.90;;;;;;4989330;28;20645;-73
2021/11/26 02:00:14;;;;;;;71.57;31.95;;;3.20;99.90;;;;;;4989272;28;20018;-72
2021/11/26 02:02:40;;;;;;;75.95;34.17;;;3.20;99.90;;;;;;4989214;28;20026;-72
2021/11/26 02:05:06;;;;;;;74.38;35.00;;;3.20;99.90;;;;;;4988885;28;20518;-72
2021/11/26 02:07:32;;;;;;;73.85;31.70;;;3.20;99.90;;;;;;4989371;28;20368;-73
2021/11/26 02:09:58;;;;;;;68.65;33.00;;;3.10;99.90;;;;;;4988774;28;20022;-72
2021/11/26 02:12:24;;;;;;;67.30;31.45;;;3.10;99.90;;;;;;4989022;28;20069;-72
2021/11/26 02:14:49;;;;;;;65.03;30.95;;;3.10;99.90;;;;;;4988622;28;20387;-72
2021/11/26 02:17:15;;;;;;;70.28;32.60;;;3.10;99.90;;;;;;4988948;28;20062;-74
2021/11/26 02:19:41;;;;;;;67.95;31.95;;;3.10;99.90;;;;;;4988694;28;20015;-72
2021/11/26 02:22:07;;;;;;;73.30;33.45;;;3.10;99.90;;;;;;4980844;28;20113;-72
2021/11/26 02:24:32;;;;;;;72.35;32.15;;;3.10;99.90;;;;;;4965820;28;20031;-72
2021/11/26 02:26:58;;;;;;;64.78;30.60;;;3.10;99.90;;;;;;4989136;28;20038;-74
2021/11/26 02:29:24;;;;;;;66.43;31.85;;;3.10;99.90;;;;;;4988387;28;20038;-72
2021/11/26 02:31:50;;;;;;;68.80;31.75;;;3.10;99.90;;;;;;4989104;28;20643;-73
2021/11/26 02:34:16;;;;;;;72.90;32.22;;;3.10;99.90;;;;;;4988864;28;20499;-72
2021/11/26 02:36:42;;;;;;;74.40;33.15;;;3.10;99.90;;;;;;4988617;28;20030;-72
2021/11/26 02:39:09;;;;;;;69.38;31.83;;;3.10;99.90;;;;;;4988778;28;20469;-72
2021/11/26 02:41:37;;;;;;;76.75;35.70;;;3.10;99.90;;;;;;4978479;28;20476;-72
2021/11/26 02:44:04;;;;;;;70.63;33.00;;;3.10;99.90;;;;;;4989474;28;20031;-72
2021/11/26 02:46:29;;;;;;;79.28;36.20;;;3.10;99.90;;;;;;4978055;28;20568;-73
2021/11/26 02:48:55;;;;;;;78.22;37.85;;;3.10;99.90;;;;;;4992277;28;20146;-72
2021/11/26 02:51:21;;;;;;;72.50;35.47;;;3.10;99.90;;;;;;4991804;28;20027;-72
2021/11/26 02:53:46;;;;;;;73.30;34.25;;;3.20;99.90;;;;;;4982141;28;20054;-72
2021/11/26 02:56:12;;;;;;;78.68;36.60;;;3.20;99.90;;;;;;4991447;28;20149;-71
2021/11/26 02:58:37;;;;;;;73.25;34.45;;;3.20;99.90;;;;;;4992232;28;20021;-73
2021/11/26 03:01:04;;;;;;;70.25;32.95;;;3.20;99.90;;;;;;4991347;28;20496;-72
2021/11/26 03:03:30;;;;;;;74.13;34.28;;;3.20;99.90;;;;;;4992269;28;20026;-72
2021/11/26 03:06:00;;;;;;;71.18;31.13;;;3.20;99.90;;;;;;4991087;28;20034;-72
2021/11/26 03:08:27;;;;;;;66.55;31.95;;;3.20;99.90;;;;;;4987092;28;20022;-72
2021/11/26 03:10:53;;;;;;;77.53;37.58;;;3.30;99.90;;;;;;4990846;28;20014;-72
2021/11/26 03:13:18;;;;;;;77.70;36.40;;;3.20;99.90;;;;;;4991791;28;20054;-73
2021/11/26 03:15:44;;;;;;;75.95;38.53;;;3.20;99.90;;;;;;4980470;28;20030;-72
2021/11/26 03:18:15;;;;;;;75.30;35.45;;;3.20;99.90;;;;;;4995456;28;20027;-72
2021/11/26 03:20:41;;;;;;;78.05;36.05;;;3.20;99.90;;;;;;4987042;28;20019;-72
2021/11/26 03:23:07;;;;;;;72.38;33.70;;;3.20;99.90;;;;;;4983286;28;20026;-72
2021/11/26 03:25:32;;;;;;;74.03;34.53;;;3.20;99.90;;;;;;4994699;28;20391;-72
2021/11/26 03:27:58;;;;;;;81.05;36.25;;;3.20;99.90;;;;;;4983003;28;20480;-74
2021/11/26 03:30:24;;;;;;;78.72;34.40;;;3.20;99.90;;;;;;4986097;28;20093;-73
2021/11/26 03:32:51;;;;;;;74.30;34.08;;;3.10;99.90;;;;;;4983111;28;20054;-73
2021/11/26 03:35:18;;;;;;;76.90;34.20;;;3.10;99.90;;;;;;4994970;28;20062;-72
2021/11/26 03:37:44;;;;;;;78.95;36.45;;;3.00;99.90;;;;;;4994963;28;20038;-73
2021/11/26 03:40:12;;;;;;;75.93;35.40;;;3.00;99.90;;;;;;4994436;28;20073;-72
2021/11/26 03:42:37;;;;;;;77.95;36.97;;;3.10;99.90;;;;;;4994753;28;20015;-73
2021/11/26 03:45:06;;;;;;;72.13;32.40;;;3.00;99.90;;;;;;4993714;28;20037;-73
2021/11/26 03:47:32;;;;;;;79.72;34.53;;;3.00;99.90;;;;;;4995906;28;20181;-72
2021/11/26 03:49:57;;;;;;;70.85;33.05;;;3.00;99.90;;;;;;4995397;28;20050;-72
2021/11/26 03:52:23;;;;;;;74.15;33.50;;;2.90;99.90;;;;;;4995813;28;20023;-73
2021/11/26 03:54:48;;;;;;;75.05;37.60;;;2.90;99.90;;;;;;4977733;28;20042;-72
2021/11/26 03:57:14;;;;;;;68.78;34.15;;;2.80;99.90;;;;;;4995724;28;20081;-73
2021/11/26 03:59:40;;;;;;;67.20;33.90;;;2.70;99.90;;;;;;4995183;28;20471;-72
2021/11/26 04:02:05;;;;;;;67.43;29.52;;;2.60;99.90;;;;;;4995571;28;20037;-73
2021/11/26 04:04:31;;;;;;;70.95;35.63;;;2.60;99.90;;;;;;4995592;28;20030;-72
2021/11/26 04:06:57;;;;;;;74.20;30.48;;;2.50;99.90;;;;;;4995024;28;20487;-72
2021/11/26 04:09:23;;;;;;;67.35;29.85;;;2.50;99.90;;;;;;4994674;28;20053;-73
2021/11/26 04:11:49;;;;;;;65.75;30.42;;;2.40;99.90;;;;;;4977610;28;20523;-73
2021/11/26 04:14:15;;;;;;;79.25;34.38;;;2.50;99.90;;;;;;4995409;28;20029;-72
2021/11/26 04:16:41;;;;;;;77.57;38.03;;;2.40;99.90;;;;;;4995011;28;20030;-73
2021/11/26 04:19:07;;;;;;;69.00;32.38;;;2.40;99.90;;;;;;4995124;28;20042;-72
2021/11/26 04:21:33;;;;;;;66.20;31.65;;;2.40;99.90;;;;;;4977154;28;20443;-73
2021/11/26 04:24:02;;;;;;;67.43;32.22;;;2.40;99.90;;;;;;4977732;28;20105;-72
2021/11/26 04:26:27;;;;;;;64.43;29.20;;;2.40;99.90;;;;;;4976535;28;20495;-72
2021/11/26 04:28:53;;;;;;;59.53;30.10;;;2.40;99.90;;;;;;4994082;28;20054;-73
2021/11/26 04:31:19;;;;;;;64.50;30.80;;;2.40;99.90;;;;;;4995080;28;20535;-72
2021/11/26 04:33:44;;;;;;;63.63;30.42;;;2.30;99.90;;;;;;4977421;28;20110;-74
2021/11/26 04:36:10;;;;;;;70.20;33.58;;;2.30;99.90;;;;;;4995021;28;20058;-73
2021/11/26 04:38:36;;;;;;;76.43;35.35;;;2.30;99.90;;;;;;4994519;28;20033;-73
2021/11/26 04:41:01;;;;;;;66.30;32.47;;;2.40;99.90;;;;;;4994343;28;20026;-72
2021/11/26 04:43:27;;;;;;;69.50;29.92;;;2.40;99.90;;;;;;4994803;28;20027;-72
2021/11/26 04:45:53;;;;;;;69.35;32.05;;;2.40;99.90;;;;;;4983488;28;20124;-72
2021/11/26 04:48:22;;;;;;;69.07;31.27;;;2.40;99.90;;;;;;4976947;28;20014;-73
2021/11/26 04:50:48;;;;;;;66.85;32.30;;;2.40;99.90;;;;;;4994033;28;20046;-72
2021/11/26 04:53:14;;;;;;;64.18;30.50;;;2.40;99.90;;;;;;4994723;28;20068;-72
2021/11/26 04:55:40;;;;;;;63.92;30.80;;;2.40;99.90;;;;;;4994138;28;20484;-72
2021/11/26 04:58:06;;;;;;;62.80;29.92;;;2.40;99.90;;;;;;4994842;28;20037;-73
2021/11/26 05:00:31;;;;;;;59.75;30.10;;;2.40;99.90;;;;;;4986405;28;20433;-72
2021/11/26 05:02:57;;;;;;;61.15;28.52;;;2.40;99.90;;;;;;4994471;28;20034;-73
2021/11/26 05:05:23;;;;;;;63.15;29.33;;;2.40;99.90;;;;;;4993802;28;20121;-73
2021/11/26 05:07:50;;;;;;;61.83;29.90;;;2.40;99.90;;;;;;4976929;28;20125;-73
2021/11/26 05:10:19;;;;;;;63.10;31.23;;;2.40;99.90;;;;;;4993872;28;20034;-72
2021/11/26 05:12:51;;;;;;;68.32;31.60;;;2.40;99.90;;;;;;4994286;28;20014;-72
2021/11/26 05:15:24;;;;;;;64.40;29.70;;;2.40;99.90;;;;;;4993614;28;20035;-72
2021/11/26 05:17:50;;;;;;;60.53;31.25;;;2.40;99.90;;;;;;4977080;28;20034;-73
2021/11/26 05:20:16;;;;;;;66.10;31.58;;;2.40;99.90;;;;;;4980491;28;20042;-72
2021/11/26 05:22:41;;;;;;;72.60;35.17;;;2.40;99.90;;;;;;4993764;28;20407;-73
2021/11/26 05:25:07;;;;;;;67.28;31.58;;;2.40;99.90;;;;;;4993525;28;20065;-72
2021/11/26 05:27:33;;;;;;;65.50;32.95;;;2.40;99.90;;;;;;4994089;28;20046;-73
2021/11/26 05:29:58;;;;;;;77.82;34.03;;;2.30;99.90;;;;;;4975720;28;20100;-72
2021/11/26 05:32:24;;;;;;;66.93;34.28;;;2.30;99.90;;;;;;4994043;28;20034;-72
2021/11/26 05:34:50;;;;;;;72.55;33.63;;;2.30;99.90;;;;;;4975981;28;20495;-72
2021/11/26 05:37:15;;;;;;;72.82;32.15;;;2.30;99.90;;;;;;4976495;28;20074;-72
2021/11/26 05:39:41;;;;;;;66.25;34.22;;;2.20;99.90;;;;;;4993052;28;20077;-72
2021/11/26 05:42:07;;;;;;;73.90;32.53;;;2.20;99.90;;;;;;4993822;28;20029;-74
2021/11/26 05:44:32;;;;;;;70.68;32.17;;;2.20;99.90;;;;;;4975923;28;20034;-72
2021/11/26 05:46:58;;;;;;;68.93;32.58;;;2.10;99.90;;;;;;4993649;28;20490;-73
2021/11/26 05:49:23;;;;;;;82.00;35.47;;;2.10;99.90;;;;;;4975727;28;20030;-72
2021/11/26 05:51:49;;;;;;;66.65;30.48;;;2.20;99.90;;;;;;4993740;28;20031;-73
2021/11/26 05:54:15;;;;;;;72.70;34.05;;;2.10;99.90;;;;;;4993653;28;20049;-72
2021/11/26 05:56:41;;;;;;;81.30;36.83;;;2.10;99.90;;;;;;4993253;28;20531;-73
2021/11/26 05:59:07;;;;;;;81.97;37.42;;;2.10;99.90;;;;;;4990652;28;20026;-72
2021/11/26 06:01:32;;;;;;;79.03;37.70;;;2.10;99.90;;;;;;4974385;28;20137;-72
2021/11/26 06:03:58;;;;;;;75.80;35.55;;;2.10;99.90;;;;;;4992305;28;20432;-72
2021/11/26 06:06:24;;;;;;;88.85;37.92;;;2.00;99.90;;;;;;4974532;28;20476;-72
2021/11/26 06:08:49;;;;;;;78.07;34.42;;;2.00;99.90;;;;;;4992308;28;20037;-72
2021/11/26 06:11:15;;;;;;;72.00;35.17;;;2.00;99.90;;;;;;4974466;28;20038;-72
2021/11/26 06:13:41;;;;;;;82.10;35.88;;;2.00;99.90;;;;;;4992225;28;20042;-72
2021/11/26 06:16:06;;;;;;;89.38;42.60;;;2.00;99.90;;;;;;4989718;28;20076;-72
2021/11/26 06:18:32;;;;;;;95.75;42.10;;;2.00;99.90;;;;;;4991207;28;20030;-72
2021/11/26 06:20:57;;;;;;;90.03;41.53;;;2.00;99.90;;;;;;4990835;28;20097;-72
2021/11/26 06:23:23;;;;;;;100.88;46.38;;;1.90;99.90;;;;;;4993010;28;20037;-72
2021/11/26 06:25:49;;;;;;;90.80;42.65;;;1.90;99.90;;;;;;4974633;28;20037;-73
2021/11/26 06:28:15;;;;;;;92.22;42.33;;;1.90;99.90;;;;;;4974852;28;20030;-73
2021/11/26 06:30:40;;;;;;;98.82;46.50;;;1.90;99.90;;;;;;4991695;28;20026;-72
2021/11/26 06:33:06;;;;;;;113.82;52.00;;;1.90;99.90;;;;;;4982155;28;20088;-72
2021/11/26 06:35:32;;;;;;;103.90;48.60;;;1.90;99.90;;;;;;4992571;28;20468;-72
2021/11/26 06:37:58;;;;;;;104.18;49.95;;;1.80;99.90;;;;;;4976913;28;20125;-72
2021/11/26 06:40:25;;;;;;;101.68;48.45;;;1.90;99.90;;;;;;4991926;28;20018;-73
2021/11/26 06:42:50;;;;;;;105.80;46.25;;;1.80;99.90;;;;;;4991183;28;20484;-72
2021/11/26 06:45:18;;;;;;;105.60;43.22;;;1.80;99.90;;;;;;4978437;28;20165;-72
2021/11/26 06:47:45;;;;;;;105.43;45.17;;;1.90;99.90;;;;;;4978024;28;20154;-73
2021/11/26 06:50:11;;;;;;;111.70;48.05;;;1.90;99.90;;;;;;4990266;28;20106;-72
2021/11/26 06:52:38;;;;;;;105.70;45.20;;;1.90;99.90;;;;;;4992474;28;20101;-72
2021/11/26 06:55:06;;;;;;;101.88;47.08;;;1.90;99.90;;;;;;4991643;28;20117;-73
2021/11/26 06:57:31;;;;;;;101.97;41.78;;;1.90;99.90;;;;;;4980353;28;20460;-73
2021/11/26 06:59:57;;;;;;;98.55;44.83;;;1.90;99.90;;;;;;4990807;28;20022;-72
2021/11/26 07:02:23;;;;;;;88.32;41.17;;;1.90;99.90;;;;;;4990586;28;20612;-72
2021/11/26 07:04:49;;;;;;;101.15;44.08;;;2.00;99.90;;;;;;4990458;28;20033;-72
2021/11/26 07:07:14;;;;;;;106.03;44.55;;;2.00;99.90;;;;;;4980303;28;20040;-74
2021/11/26 07:09:40;;;;;;;106.45;47.97;;;2.00;99.90;;;;;;4991890;28;20447;-72
2021/11/26 07:12:10;;;;;;;102.53;45.35;;;2.00;99.90;;;;;;4993101;28;20026;-72
2021/11/26 07:14:42;;;;;;;109.20;45.35;;;2.00;99.90;;;;;;4992118;28;20018;-72
2021/11/26 07:17:08;;;;;;;94.75;44.60;;;1.90;99.90;;;;;;4992313;28;20551;-73
2021/11/26 07:19:36;;;;;;;108.93;46.83;;;1.90;99.90;;;;;;4992578;28;20018;-72
2021/11/26 07:22:02;;;;;;;119.25;53.10;;;1.90;99.90;;;;;;4991882;28;20117;-72
2021/11/26 07:24:28;;;;;;;120.00;52.15;;;1.90;99.90;;;;;;4980768;28;20022;-73
2021/11/26 07:26:54;;;;;;;118.95;48.42;;;2.00;99.90;;;;;;4980742;28;20506;-73
2021/11/26 07:29:20;;;;;;;118.93;52.60;;;2.00;99.90;;;;;;4990902;28;20093;-72
2021/11/26 07:31:46;;;;;;;122.38;54.60;;;2.00;99.90;;;;;;4990937;28;20117;-73
2021/11/26 07:34:11;;;;;;;116.78;58.45;;;2.00;99.90;;;;;;4980808;28;20105;-72
2021/11/26 07:36:37;;;;;;;147.30;59.08;;;2.00;99.90;;;;;;4980949;28;20038;-73
2021/11/26 07:39:03;;;;;;;135.43;61.15;;;2.00;99.90;;;;;;4990169;28;20029;-72
2021/11/26 07:41:29;;;;;;;134.80;60.25;;;2.10;99.90;;;;;;4990598;28;20014;-73
2021/11/26 07:43:54;;;;;;;126.53;60.85;;;2.00;99.90;;;;;;4990649;28;20077;-72
2021/11/26 07:46:20;;;;;;;129.18;61.42;;;2.00;99.90;;;;;;4991463;28;20030;-72
2021/11/26 07:48:46;;;;;;;137.80;57.08;;;2.00;99.90;;;;;;4992287;28;20034;-74
2021/11/26 07:51:12;;;;;;;122.15;57.55;;;2.10;99.90;;;;;;4992059;28;20054;-72
2021/11/26 07:53:38;;;;;;;124.88;54.38;;;2.10;99.90;;;;;;4982400;28;20468;-73
2021/11/26 07:56:03;;;;;;;127.03;54.92;;;2.10;99.90;;;;;;4992002;28;20018;-73
2021/11/26 07:58:29;;;;;;;130.02;58.03;;;2.10;99.90;;;;;;4981360;28;20017;-73
2021/11/26 08:00:55;;;;;;;125.35;55.55;;;2.00;99.90;;;;;;4990980;28;20037;-72
2021/11/26 08:03:21;;;;;;;131.57;57.10;;;2.00;99.90;;;;;;4983194;28;20491;-73
2021/11/26 08:05:48;;;;;;;129.90;55.35;;;2.00;99.90;;;;;;4990915;28;20037;-72
2021/11/26 08:08:14;;;;;;;120.93;54.72;;;2.00;99.90;;;;;;4992348;28;20109;-72
2021/11/26 08:10:40;;;;;;;120.57;51.55;;;2.00;99.90;;;;;;4992216;28;20425;-71
2021/11/26 08:13:07;;;;;;;120.40;53.55;;;2.00;99.90;;;;;;4992602;28;20022;-72
2021/11/26 08:15:34;;;;;;;118.40;55.47;;;2.00;99.90;;;;;;4991829;28;20404;-71
2021/11/26 08:18:02;;;;;;;108.00;52.67;;;2.10;99.90;;;;;;4991885;28;20448;-71
2021/11/26 08:20:28;;;;;;;115.57;51.00;;;2.10;99.90;;;;;;4991508;28;20030;-72
2021/11/26 08:22:54;;;;;;;107.00;47.88;;;2.10;99.90;;;;;;4991818;28;20034;-72
2021/11/26 08:25:23;;;;;;;103.25;45.42;;;2.10;99.90;;;;;;4999219;28;20504;-72
2021/11/26 08:27:50;;;;;;;112.07;48.63;;;2.10;99.90;;;;;;4985998;28;20014;-72
2021/11/26 08:30:15;;;;;;;103.63;45.78;;;2.10;99.90;;;;;;4995362;28;20030;-72
2021/11/26 08:32:41;;;;;;;92.00;42.10;;;2.20;99.90;;;;;;4993388;28;20460;-72
2021/11/26 08:35:07;;;;;;;110.35;46.15;;;2.20;99.90;;;;;;4991529;28;20030;-73
2021/11/26 08:37:33;;;;;;;98.57;43.83;;;2.20;99.90;;;;;;4990661;28;20019;-74
2021/11/26 08:39:59;;;;;;;107.25;48.08;;;2.20;99.90;;;;;;4981606;28;20026;-72
2021/11/26 08:42:25;;;;;;;99.85;46.58;;;2.30;99.90;;;;;;4991061;28;20030;-73
2021/11/26 08:44:51;;;;;;;91.03;40.22;;;2.30;99.90;;;;;;4991268;28;20022;-72
2021/11/26 08:47:16;;;;;;;89.55;41.00;;;2.30;99.90;;;;;;4995540;28;20022;-73
2021/11/26 08:49:42;;;;;;;105.80;44.63;;;2.30;99.90;;;;;;4979747;28;20380;-73
2021/11/26 08:52:08;;;;;;;122.40;55.67;;;2.30;99.90;;;;;;4991513;28;20379;-74
2021/11/26 08:54:35;;;;;;;109.50;44.60;;;2.40;99.90;;;;;;4990740;28;20571;-72
2021/11/26 08:57:01;;;;;;;88.90;39.75;;;2.30;99.90;;;;;;4980808;28;20110;-72
2021/11/26 08:59:27;;;;;;;89.25;44.15;;;2.20;99.90;;;;;;4981439;28;20054;-72
2021/11/26 09:01:54;;;;;;;87.25;40.95;;;2.20;99.90;;;;;;4975070;28;20369;-72
2021/11/26 09:04:21;;;;;;;84.35;37.75;;;2.20;99.90;;;;;;4980751;28;20026;-72
2021/11/26 09:06:48;;;;;;;96.15;44.45;;;2.10;99.90;;;;;;4991184;28;20110;-73
2021/11/26 09:09:15;;;;;;;87.95;42.80;;;2.20;99.90;;;;;;4981391;28;20369;-72
2021/11/26 09:11:41;;;;;;;92.55;42.17;;;2.20;99.90;;;;;;4983007;28;20117;-72
2021/11/26 09:14:07;;;;;;;90.43;41.08;;;2.10;99.90;;;;;;4981039;28;20569;-72
2021/11/26 09:16:34;;;;;;;81.32;41.10;;;2.10;99.90;;;;;;4989028;28;20534;-72
2021/11/26 09:19:00;;;;;;;90.35;39.33;;;2.00;99.90;;;;;;4982976;28;20018;-72
2021/11/26 09:21:26;;;;;;;86.28;39.97;;;2.00;99.90;;;;;;4979895;28;20550;-72
2021/11/26 09:23:52;;;;;;;82.13;37.85;;;2.00;99.90;;;;;;4991092;28;20045;-72
2021/11/26 09:26:18;;;;;;;77.72;36.97;;;2.00;99.90;;;;;;4978771;28;20027;-72
2021/11/26 09:28:43;;;;;;;73.85;37.17;;;2.00;99.90;;;;;;4979793;28;20499;-73
2021/11/26 09:31:09;;;;;;;77.97;36.80;;;2.00;99.90;;;;;;4989034;28;20037;-72
2021/11/26 09:33:35;;;;;;;84.55;37.85;;;2.00;99.90;;;;;;4963473;28;20028;-72
2021/11/26 09:36:05;;;;;;;77.32;38.08;;;2.10;99.90;;;;;;4990158;28;20018;-72
2021/11/26 09:38:32;;;;;;;85.75;39.38;;;2.10;99.90;;;;;;4979383;28;20165;-72
2021/11/26 09:40:59;;;;;;;72.80;36.17;;;2.20;99.90;;;;;;4990650;28;20033;-72
2021/11/26 09:43:26;;;;;;;77.35;37.25;;;2.20;99.90;;;;;;4982112;28;20026;-72
2021/11/26 09:45:53;;;;;;;77.38;35.30;;;2.20;99.90;;;;;;4979881;28;20384;-72
2021/11/26 09:48:18;;;;;;;73.32;36.58;;;2.20;99.90;;;;;;4979129;28;20022;-71
2021/11/26 09:50:44;;;;;;;76.50;34.38;;;2.20;99.90;;;;;;4989128;28;20060;-72
2021/11/26 09:53:14;;;;;;;83.57;38.42;;;2.20;99.90;;;;;;4991104;28;20019;-72
2021/11/26 09:55:48;;;;;;;83.63;37.72;;;2.20;99.90;;;;;;4990509;28;20017;-71
2021/11/26 09:58:15;;;;;;;78.22;34.00;;;2.20;99.90;;;;;;4990633;28;20392;-72
2021/11/26 10:00:41;;;;;;;75.15;37.10;;;2.20;99.90;;;;;;4990642;28;20030;-72
2021/11/26 10:03:06;;;;;;;75.80;34.85;;;2.20;99.90;;;;;;4990382;28;20026;-72
2021/11/26 10:05:36;;;;;;;78.22;34.80;;;2.20;99.90;;;;;;4982119;28;20036;-71
2021/11/26 10:08:03;;;;;;;85.82;36.47;;;2.20;99.90;;;;;;4989496;28;20109;-72
2021/11/26 10:10:32;;;;;;;77.22;35.75;;;2.20;99.90;;;;;;4988869;28;20030;-71
2021/11/26 10:13:08;;;;;;;81.88;37.28;;;2.10;99.90;;;;;;4977425;28;20502;-72
2021/11/26 10:15:43;;;;;;;76.15;34.88;;;2.20;99.90;;;;;;4978932;28;20022;-71
2021/11/26 10:18:16;;;;;;;68.63;31.65;;;2.20;99.90;;;;;;4978909;28;20472;-72
2021/11/26 10:21:03;;;;;;;73.07;32.47;;;2.10;99.90;;;;;;4978695;28;20027;-72
2021/11/26 10:23:33;;;;;;;73.97;34.15;;;2.10;99.90;;;;;;4987325;28;20031;-72
2021/11/26 10:26:21;;;;;;;68.47;34.33;;;2.10;99.90;;;;;;4989861;28;20030;-71
2021/11/26 10:28:52;;;;;;;71.75;31.65;;;2.10;99.90;;;;;;4991889;28;20034;-72
2021/11/26 10:31:27;;;;;;;71.85;33.33;;;2.00;99.90;;;;;;4992218;28;20562;-71
2021/11/26 10:33:56;;;;;;;69.65;34.75;;;2.00;99.90;;;;;;4995650;28;20034;-72
2021/11/26 10:36:22;;;;;;;66.05;30.58;;;2.00;99.90;;;;;;4996138;28;20031;-72
2021/11/26 10:38:48;;;;;;;73.30;32.70;;;2.00;99.90;;;;;;4995487;28;20156;-72
2021/11/26 10:41:15;;;;;;;70.50;33.00;;;2.00;99.90;;;;;;4995862;28;20101;-71
2021/11/26 10:59:46;;;;;;;65.47;29.30;;;2.00;99.90;;;;;;4991041;28;20033;-72
2021/11/26 11:02:23;;;;;;;72.65;35.33;;;2.00;99.90;;;;;;4992938;28;20492;-72
2021/11/26 11:04:49;;;;;;;69.55;33.47;;;2.00;99.90;;;;;;4983594;28;20019;-71
2021/11/26 11:07:15;;;;;;;62.22;32.35;;;2.00;99.90;;;;;;4993791;28;20089;-72
2021/11/26 11:09:53;;;;;;;60.63;30.27;;;2.00;99.90;;;;;;4992594;28;20057;-71
2021/11/26 11:12:32;;;;;;;60.22;30.60;;;2.00;99.90;;;;;;4993253;28;20026;-71
2021/11/26 11:15:01;;;;;;;71.15;33.28;;;2.00;99.90;;;;;;4994408;28;20404;-71
2021/11/26 11:17:28;;;;;;;61.92;29.17;;;1.90;99.90;;;;;;4995513;28;20020;-71
2021/11/26 11:20:05;;;;;;;67.78;30.92;;;1.90;99.90;;;;;;4985721;28;20050;-71
2021/11/26 11:22:32;;;;;;;59.67;30.88;;;1.90;99.90;;;;;;4991555;28;20022;-72
2021/11/26 11:24:58;;;;;;;69.38;30.42;;;1.90;99.90;;;;;;4981673;28;20018;-71
2021/11/26 11:27:24;;;;;;;55.90;28.60;;;1.90;99.90;;;;;;4990932;28;20019;-72
2021/11/26 11:29:50;;;;;;;54.55;26.63;;;1.90;99.90;;;;;;4991393;28;20026;-72
2021/11/26 11:32:16;;;;;;;55.50;26.10;;;1.90;99.90;;;;;;4991880;28;20030;-72
2021/11/26 11:34:46;;;;;;;57.00;27.77;;;1.90;99.90;;;;;;4990468;28;20622;-71
2021/11/26 11:37:17;;;;;;;57.95;27.13;;;1.90;99.90;;;;;;4983981;28;20522;-71
2021/11/26 11:39:52;;;;;;;58.28;26.83;;;1.90;99.90;;;;;;4983620;28;20081;-72
2021/11/26 11:42:25;;;;;;;61.45;28.38;;;1.90;99.90;;;;;;4981498;28;20030;-72
2021/11/26 11:44:57;;;;;;;57.40;27.98;;;1.90;99.90;;;;;;4990661;28;20077;-71
2021/11/26 11:47:24;;;;;;;58.83;25.88;;;2.00;99.90;;;;;;4991515;28;20369;-72
2021/11/26 11:49:51;;;;;;;54.85;27.10;;;2.00;99.90;;;;;;4991140;28;20014;-72
2021/11/26 11:52:16;;;;;;;64.68;32.45;;;2.00;99.90;;;;;;4981511;28;20468;-72
2021/11/26 11:54:47;;;;;;;65.57;32.13;;;2.10;99.90;;;;;;4980851;28;20085;-71
2021/11/26 11:57:21;;;;;;;68.55;32.42;;;2.00;99.90;;;;;;4991728;28;20034;-71
2021/11/26 11:59:50;;;;;;;63.47;30.50;;;2.00;99.90;;;;;;4990758;28;20026;-72
2021/11/26 12:02:25;;;;;;;60.72;28.98;;;2.00;99.90;;;;;;4991214;28;20041;-72
2021/11/26 12:04:54;;;;;;;56.40;28.70;;;2.10;99.90;;;;;;4990695;28;20456;-72
2021/11/26 12:07:25;;;;;;;62.30;32.00;;;2.10;99.90;;;;;;4990471;28;20035;-71
2021/11/26 12:10:03;;;;;;;66.20;28.67;;;2.10;99.90;;;;;;4990592;28;20476;-72
2021/11/26 12:12:29;;;;;;;69.20;32.20;;;2.10;99.90;;;;;;4990794;28;20408;-72
2021/11/26 12:14:57;;;;;;;68.03;33.28;;;2.10;99.90;;;;;;4981795;28;20029;-71
2021/11/26 12:17:31;;;;;;;70.05;30.20;;;2.00;99.90;;;;;;4990426;28;20050;-71
2021/11/26 12:20:00;;;;;;;70.05;33.78;;;2.00;99.90;;;;;;4990056;28;20053;-71
2021/11/26 12:22:36;;;;;;;76.70;34.70;;;2.00;99.90;;;;;;4980811;28;20022;-72
2021/11/26 12:25:04;;;;;;;74.20;31.92;;;2.00;99.90;;;;;;4980245;28;20528;-72
2021/11/26 12:27:38;;;;;;;77.60;36.25;;;2.00;99.90;;;;;;4990571;28;20029;-72
2021/11/26 12:30:16;;;;;;;84.22;39.60;;;2.00;99.90;;;;;;4990389;28;20018;-72
2021/11/26 12:32:42;;;;;;;80.20;37.60;;;2.00;99.90;;;;;;4993646;28;20105;-72
2021/11/26 12:35:13;;;;;;;87.68;39.20;;;2.10;99.90;;;;;;4984277;28;20596;-72
2021/11/26 12:37:39;;;;;;;85.38;37.65;;;2.10;99.90;;;;;;4994207;28;20026;-72
2021/11/26 12:40:12;;;;;;;87.25;40.08;;;2.10;99.90;;;;;;4992976;28;20498;-72
2021/11/26 12:42:38;;;;;;;81.53;38.33;;;2.10;99.90;;;;;;4993575;28;20055;-72
2021/11/26 12:45:07;;;;;;;86.78;37.97;;;2.10;99.90;;;;;;4976722;28;20446;-72
2021/11/26 12:47:37;;;;;;;90.32;41.25;;;2.10;99.90;;;;;;4992532;28;20018;-72
2021/11/26 12:53:06;;;;;;;100.50;41.65;;;2.10;99.90;;;;;;4993317;28;20072;-72